Main page
METAR-TAF:

METAR-TAF

Airports :

Palanga International Airport

Palanga, Lithuania

latitude: 55-55-12N, longitude: 021-03E, elevation: 10 m

Current weather observation

The report was made 19 minutes ago, at 12:50 UTC
Wind 5 kt from the East/Southeast, varying between East and South/Southeast
Temperature 0°C
Humidity 74%
Pressure 1031 hPa
Visibility 10 km or more
Overcast at a height of 1700 ft

METAR: EYPA 211250Z 12005KT 090V150 9999 OVC017 M00/M04 Q1031 R19/0///95

Time: 15:09 (13:09 UTC)

Forecast

The report was made 2 hours and 1 minutes ago, at 11:08 UTC
Forecast valid from 21 at 12 UTC to 22 at 12 UTC
Wind 4 kt from variable directions
Visibility: 7000 m
Broken clouds at a height of 1500 ft
Temporary
from 21 at 12 UTC to 21 at 18 UTC
Wind 14 kt from the East
Temporary
from 21 at 18 UTC to 22 at 06 UTC
Broken clouds at a height of 500 ft

TAF: EYPA 211108Z 2112/2212 VRB04KT 7000 BKN015 TEMPO 2112/2118 09014KT TEMPO 2118/2206 BKN005

Weather observations and forecasts of more than 4000 airports (METAR and TAF reports).

The available stations are represented by yellow and red dots on the map.

Hover mouse over dot to see the name of the station.

Then click to see weather observations and forecasts.

To change the map : click on the green buttons with a black cross to zoom in, on the green button with a dash to zoom out, or on the green arrows for adjacent maps.


METAR-TAF: